createdAt,value
2023-05-08T00:02:14.089Z,11.52
2023-05-08T00:04:40.891Z,13.40
2023-05-08T00:07:08.728Z,13.48
2023-05-08T00:09:35.900Z,16.58
2023-05-08T00:12:02.630Z,12.63
2023-05-08T00:14:29.412Z,13.90
2023-05-08T00:16:56.127Z,12.13
2023-05-08T00:19:23.512Z,13.50
2023-05-08T00:21:53.398Z,15.77
2023-05-08T00:24:20.378Z,13.00
2023-05-08T00:26:47.442Z,12.27
2023-05-08T00:29:21.551Z,14.85
2023-05-08T00:31:50.500Z,12.85
2023-05-08T00:34:17.528Z,13.50
2023-05-08T00:36:44.517Z,15.15
2023-05-08T00:39:11.461Z,13.73
2023-05-08T00:41:41.227Z,12.15
2023-05-08T00:44:12.426Z,13.85
2023-05-08T00:46:43.169Z,14.98
2023-05-08T00:49:13.443Z,15.55
2023-05-08T00:51:45.376Z,15.55
2023-05-08T00:54:16.332Z,13.27
2023-05-08T00:56:43.910Z,15.27
2023-05-08T00:59:14.294Z,13.70
2023-05-08T01:01:41.534Z,14.40
2023-05-08T01:04:08.445Z,14.75
2023-05-08T01:06:36.893Z,15.27
2023-05-08T01:09:04.436Z,15.18
2023-05-08T01:11:41.484Z,15.80
2023-05-08T01:14:22.710Z,15.18
2023-05-08T01:17:14.029Z,17.08
2023-05-08T01:19:56.966Z,14.68
2023-05-08T01:22:33.291Z,20.40
2023-05-08T01:25:18.549Z,13.65
2023-05-08T01:28:36.797Z,16.60
2023-05-08T01:31:46.771Z,17.23
2023-05-08T01:34:35.743Z,17.25
2023-05-08T01:37:17.604Z,16.20
2023-05-08T01:40:02.012Z,18.20
2023-05-08T01:42:29.847Z,16.30
2023-05-08T01:45:02.610Z,19.63
2023-05-08T01:47:33.643Z,17.13
2023-05-08T01:50:16.893Z,18.38
2023-05-08T01:52:51.494Z,20.73
2023-05-08T01:55:24.978Z,19.83
2023-05-08T01:57:55.779Z,16.90
2023-05-08T02:00:29.882Z,21.48
2023-05-08T02:03:05.544Z,18.77
2023-05-08T02:05:38.209Z,19.25
2023-05-08T02:08:06.952Z,19.73
2023-05-08T02:10:35.770Z,22.67
2023-05-08T02:13:04.505Z,22.00
2023-05-08T02:15:36.107Z,21.88
2023-05-08T02:18:08.592Z,20.08
2023-05-08T02:20:36.969Z,18.13
2023-05-08T02:23:04.806Z,19.58
2023-05-08T02:25:32.798Z,20.02
2023-05-08T02:28:00.768Z,19.90
2023-05-08T02:30:29.401Z,20.00
2023-05-08T02:33:00.564Z,25.17
2023-05-08T02:35:31.294Z,22.73
2023-05-08T02:37:59.298Z,21.52
2023-05-08T02:40:35.539Z,22.88
2023-05-08T02:43:07.109Z,22.42
2023-05-08T02:45:47.979Z,20.92
2023-05-08T02:48:52.617Z,20.98
2023-05-08T02:51:44.685Z,24.80
2023-05-08T02:54:20.175Z,21.80
2023-05-08T02:56:59.265Z,24.92
2023-05-08T02:59:37.308Z,23.25
2023-05-08T03:02:12.606Z,24.95
2023-05-08T03:04:50.394Z,25.80
2023-05-08T03:07:22.001Z,24.52
2023-05-08T03:09:55.387Z,24.75
2023-05-08T03:12:26.801Z,24.75
2023-05-08T03:15:18.005Z,23.85
2023-05-08T03:17:47.566Z,24.52
2023-05-08T03:20:18.308Z,22.63
2023-05-08T03:22:46.855Z,24.98
2023-05-08T03:25:17.740Z,25.23
2023-05-08T03:27:45.853Z,26.15
2023-05-08T03:30:14.478Z,27.35
2023-05-08T03:32:46.503Z,25.23
2023-05-08T03:35:17.311Z,25.13
2023-05-08T03:37:47.841Z,26.95
2023-05-08T03:40:15.352Z,24.38
2023-05-08T03:42:44.560Z,27.30
2023-05-08T03:45:14.343Z,24.13
2023-05-08T03:47:42.551Z,25.35
2023-05-08T03:50:14.302Z,24.30
2023-05-08T03:52:41.398Z,24.48
2023-05-08T03:55:09.643Z,24.55
2023-05-08T03:57:45.788Z,22.77
2023-05-08T04:00:57.717Z,23.98
2023-05-08T04:04:02.580Z,28.33
2023-05-08T04:06:48.707Z,27.90
2023-05-08T04:09:24.945Z,26.35
2023-05-08T04:12:12.830Z,27.77
2023-05-08T04:14:57.044Z,28.98
2023-05-08T04:17:48.090Z,26.58
2023-05-08T04:20:21.030Z,19.15
2023-05-08T04:22:59.700Z,28.90
2023-05-08T04:25:32.419Z,26.20
2023-05-08T04:28:00.492Z,25.83
2023-05-08T04:30:28.855Z,26.83
2023-05-08T04:32:56.579Z,28.30
2023-05-08T04:35:23.857Z,27.65
2023-05-08T04:37:51.651Z,25.65
2023-05-08T04:40:18.371Z,27.50
2023-05-08T04:42:47.896Z,28.40
2023-05-08T04:45:18.977Z,22.77
2023-05-08T04:47:46.230Z,25.17
2023-05-08T04:50:14.074Z,29.58
2023-05-08T04:52:47.180Z,28.38
2023-05-08T04:55:14.758Z,29.48
2023-05-08T04:57:44.858Z,32.85
2023-05-08T05:00:18.407Z,27.88
2023-05-08T05:05:13.732Z,26.42
2023-05-08T05:07:41.552Z,28.92
2023-05-08T05:10:09.058Z,26.77
2023-05-08T05:12:52.479Z,26.40
2023-05-08T05:15:20.304Z,27.17
2023-05-08T05:17:48.295Z,28.23
2023-05-08T05:20:17.947Z,26.88
2023-05-08T05:22:44.810Z,30.23
2023-05-08T05:25:13.089Z,29.95
2023-05-08T05:30:08.450Z,26.00
2023-05-08T05:32:40.029Z,25.70
2023-05-08T05:35:08.391Z,29.75
2023-05-08T05:37:36.134Z,28.90
2023-05-08T05:40:06.707Z,26.98
2023-05-08T05:42:34.994Z,33.75
2023-05-08T05:45:06.839Z,28.25
2023-05-08T05:47:34.755Z,27.40
2023-05-08T05:50:06.120Z,31.00
2023-05-08T05:52:34.320Z,31.10
2023-05-08T05:55:07.889Z,32.17
2023-05-08T05:57:36.728Z,26.77
2023-05-08T06:00:05.143Z,30.15
2023-05-08T06:02:42.006Z,26.65
2023-05-08T06:05:11.254Z,28.02
2023-05-08T06:07:38.429Z,26.52
2023-05-08T06:10:05.954Z,28.73
2023-05-08T06:12:32.749Z,30.30
2023-05-08T06:15:00.450Z,25.10
2023-05-08T06:17:27.516Z,26.65
2023-05-08T06:19:56.618Z,32.97
2023-05-08T06:22:24.514Z,27.83
2023-05-08T06:24:53.591Z,31.05
2023-05-08T06:27:21.381Z,29.30
2023-05-08T06:29:51.671Z,30.92
2023-05-08T06:32:19.279Z,27.45
2023-05-08T06:34:46.294Z,28.70
2023-05-08T06:37:12.994Z,25.10
2023-05-08T06:39:39.787Z,25.08
2023-05-08T06:42:08.184Z,30.65
2023-05-08T06:44:38.848Z,30.95
2023-05-08T06:47:05.665Z,31.58
2023-05-08T06:49:32.585Z,24.83
2023-05-08T06:51:59.296Z,29.30
2023-05-08T06:54:26.039Z,31.63
2023-05-08T06:56:54.286Z,27.65
2023-05-08T06:59:23.392Z,30.25
2023-05-08T07:01:50.811Z,27.75
2023-05-08T07:04:17.773Z,29.38
2023-05-08T07:06:44.556Z,25.70
2023-05-08T07:09:12.114Z,34.08
2023-05-08T07:11:39.007Z,25.67
2023-05-08T07:14:05.692Z,31.77
2023-05-08T07:16:32.601Z,30.67
2023-05-08T07:18:59.646Z,27.95
2023-05-08T07:21:26.587Z,24.80
2023-05-08T07:23:53.987Z,26.48
2023-05-08T07:26:21.680Z,28.35
2023-05-08T07:28:50.839Z,28.27
2023-05-08T07:31:19.710Z,25.65
2023-05-08T07:33:47.109Z,24.25
2023-05-08T07:36:14.082Z,29.55
2023-05-08T07:38:40.859Z,33.85
2023-05-08T07:41:08.247Z,30.75
2023-05-08T07:43:35.093Z,33.42
2023-05-08T07:46:01.736Z,33.60
2023-05-08T07:48:28.474Z,30.05
2023-05-08T07:50:55.179Z,29.40
2023-05-08T07:53:21.990Z,29.83
2023-05-08T07:55:48.719Z,32.40
2023-05-08T07:58:15.561Z,30.95
2023-05-08T08:00:42.294Z,30.33
2023-05-08T08:03:09.103Z,30.63
2023-05-08T08:05:36.224Z,29.63
2023-05-08T08:08:04.473Z,28.67
2023-05-08T08:10:31.597Z,31.08
2023-05-08T08:12:58.411Z,29.80
2023-05-08T08:15:25.134Z,25.65
2023-05-08T08:17:52.206Z,29.60
2023-05-08T08:20:19.330Z,26.60
2023-05-08T08:22:46.462Z,30.40
2023-05-08T08:25:13.874Z,28.58
2023-05-08T08:27:40.736Z,28.92
2023-05-08T08:30:16.911Z,27.98
2023-05-08T08:32:44.791Z,28.92
2023-05-08T08:35:12.037Z,30.15
2023-05-08T08:37:39.117Z,29.10
2023-05-08T08:40:06.711Z,29.17
2023-05-08T08:42:33.787Z,29.83
2023-05-08T08:45:01.794Z,30.27
2023-05-08T08:47:30.121Z,29.10
2023-05-08T08:50:02.664Z,27.65
2023-05-08T08:52:41.331Z,31.80
2023-05-08T08:55:12.731Z,25.30
2023-05-08T08:57:52.831Z,27.55
2023-05-08T09:00:22.483Z,27.58
2023-05-08T09:02:49.441Z,27.55
2023-05-08T09:05:16.810Z,27.20
2023-05-08T09:07:44.151Z,28.33
2023-05-08T09:10:15.475Z,30.55
2023-05-08T09:12:42.988Z,29.77
2023-05-08T09:15:10.395Z,29.90
2023-05-08T09:17:37.414Z,25.38
2023-05-08T09:20:04.899Z,29.52
2023-05-08T09:22:32.570Z,28.95
2023-05-08T09:25:01.099Z,25.15
2023-05-08T09:30:07.722Z,23.52
2023-05-08T09:32:42.204Z,22.75
2023-05-08T09:35:10.076Z,26.08
2023-05-08T09:37:44.165Z,23.70
2023-05-08T09:40:20.959Z,26.65
2023-05-08T09:42:50.023Z,24.35
2023-05-08T09:45:28.611Z,22.52
2023-05-08T09:47:55.624Z,24.67
2023-05-08T09:50:22.673Z,26.65
2023-05-08T09:52:50.536Z,26.95
2023-05-08T09:55:18.212Z,23.08
2023-05-08T09:57:59.749Z,26.08
2023-05-08T10:00:28.435Z,23.48
2023-05-08T10:05:34.668Z,25.80
2023-05-08T10:08:21.604Z,23.40
2023-05-08T10:10:48.634Z,22.63
2023-05-08T10:13:15.902Z,20.95
2023-05-08T10:15:44.410Z,25.40
2023-05-08T10:18:14.782Z,24.30
2023-05-08T10:20:45.207Z,20.50
2023-05-08T10:23:15.750Z,19.75
2023-05-08T10:25:46.169Z,21.98
2023-05-08T10:28:32.549Z,21.90
2023-05-08T10:31:05.564Z,29.67
2023-05-08T10:33:35.141Z,22.98
2023-05-08T10:36:02.330Z,21.25
2023-05-08T10:38:30.946Z,20.27
2023-05-08T10:41:01.355Z,19.85
2023-05-08T10:43:30.456Z,23.27
2023-05-08T10:45:58.874Z,23.48
2023-05-08T10:48:37.431Z,21.83
2023-05-08T10:51:35.553Z,23.65
2023-05-08T10:54:19.461Z,22.23
2023-05-08T10:56:46.304Z,21.98
2023-05-08T10:59:19.985Z,21.35
2023-05-08T11:01:50.199Z,20.98
2023-05-08T11:04:22.482Z,22.10
2023-05-08T11:06:53.012Z,23.13
2023-05-08T11:09:27.899Z,22.83
2023-05-08T11:12:06.592Z,23.02
2023-05-08T11:14:36.111Z,21.35
2023-05-08T11:17:03.675Z,21.63
2023-05-08T11:19:30.879Z,21.90
2023-05-08T11:22:37.096Z,22.52
2023-05-08T11:25:05.566Z,21.58
2023-05-08T11:27:39.650Z,19.88
2023-05-08T11:30:22.789Z,19.90
2023-05-08T11:33:14.786Z,21.75
2023-05-08T11:35:52.178Z,20.88
2023-05-08T11:38:21.542Z,21.30
2023-05-08T11:40:58.408Z,24.13
2023-05-08T11:43:34.095Z,23.45
2023-05-08T11:46:14.036Z,19.77
2023-05-08T11:48:41.033Z,21.17
2023-05-08T11:51:07.907Z,22.25
2023-05-08T11:53:36.502Z,24.25
2023-05-08T11:56:03.689Z,22.98
2023-05-08T11:58:31.105Z,22.10
2023-05-08T12:00:58.271Z,21.33
2023-05-08T12:03:26.323Z,22.70
2023-05-08T12:05:56.796Z,20.55
2023-05-08T12:08:24.122Z,21.90
2023-05-08T12:10:53.913Z,19.95
2023-05-08T12:13:28.954Z,20.27
2023-05-08T12:15:56.989Z,20.15
2023-05-08T12:18:25.133Z,19.83
2023-05-08T12:20:53.454Z,22.77
2023-05-08T12:23:20.648Z,20.85
2023-05-08T12:25:47.846Z,18.98
2023-05-08T12:28:15.837Z,18.88
2023-05-08T12:30:42.726Z,18.40
2023-05-08T12:33:11.169Z,16.80
2023-05-08T12:38:09.043Z,19.85
2023-05-08T12:40:42.933Z,19.73
2023-05-08T12:43:10.220Z,17.75
2023-05-08T12:45:40.039Z,18.92
2023-05-08T12:48:09.545Z,18.80
2023-05-08T12:50:41.485Z,19.52
2023-05-08T12:53:12.558Z,20.55
2023-05-08T12:55:40.893Z,17.75
2023-05-08T13:00:44.439Z,18.80
2023-05-08T13:03:21.970Z,18.58
2023-05-08T13:05:49.183Z,18.65
2023-05-08T13:08:15.921Z,16.50
2023-05-08T13:10:53.842Z,19.08
2023-05-08T13:13:26.005Z,18.80
2023-05-08T13:15:54.935Z,17.85
2023-05-08T13:18:27.531Z,20.50
2023-05-08T13:20:56.373Z,16.60
2023-05-08T13:23:23.341Z,16.23
2023-05-08T13:25:51.244Z,16.58
2023-05-08T13:28:18.386Z,17.05
2023-05-08T13:30:45.100Z,16.30
2023-05-08T13:33:12.182Z,14.57
2023-05-08T13:35:39.063Z,15.05
2023-05-08T13:38:06.168Z,14.18
2023-05-08T13:40:33.257Z,14.93
2023-05-08T13:43:00.404Z,13.45
2023-05-08T13:45:27.351Z,10.43
2023-05-08T13:47:54.394Z,12.90
2023-05-08T13:50:22.212Z,12.82
2023-05-08T13:52:50.165Z,10.32
2023-05-08T13:55:19.925Z,11.32
2023-05-08T13:57:46.619Z,10.85
2023-05-08T14:00:15.457Z,12.00
2023-05-08T14:02:42.682Z,10.57
2023-05-08T14:05:09.697Z,9.98
2023-05-08T14:07:36.508Z,10.38
2023-05-08T14:10:03.679Z,8.68
2023-05-08T14:12:30.602Z,9.82
2023-05-08T14:14:57.380Z,10.40
2023-05-08T14:17:24.122Z,11.05
2023-05-08T14:19:50.833Z,9.57
2023-05-08T14:22:17.660Z,9.18
2023-05-08T14:24:44.505Z,10.77
2023-05-08T14:27:11.703Z,11.27
2023-05-08T14:29:38.666Z,5.88
2023-05-08T14:32:05.964Z,8.23
2023-05-08T14:34:32.872Z,8.02
2023-05-08T14:36:59.611Z,6.72
2023-05-08T14:39:26.332Z,6.28
2023-05-08T14:44:23.124Z,7.05
2023-05-08T14:46:49.957Z,6.72
2023-05-08T14:49:25.429Z,6.03
2023-05-08T14:51:55.767Z,6.72
2023-05-08T14:54:22.599Z,6.40
2023-05-08T14:56:49.621Z,5.53
2023-05-08T14:59:16.434Z,4.68
2023-05-08T15:01:43.254Z,4.70
2023-05-08T15:04:11.349Z,4.40
2023-05-08T15:06:40.468Z,7.72
2023-05-08T15:09:10.349Z,5.15
2023-05-08T15:11:37.505Z,5.20
2023-05-08T15:14:04.802Z,4.38
2023-05-08T15:16:31.599Z,5.00
2023-05-08T15:18:58.385Z,4.05
2023-05-08T15:21:26.898Z,4.63
2023-05-08T15:23:55.646Z,5.50
2023-05-08T15:26:23.171Z,4.50
2023-05-08T15:28:50.808Z,4.03
2023-05-08T15:31:19.451Z,7.88
2023-05-08T15:33:47.965Z,5.25
2023-05-08T15:36:15.181Z,5.85
2023-05-08T15:38:43.968Z,7.88
2023-05-08T15:41:15.345Z,6.53
2023-05-08T15:43:51.155Z,6.07
2023-05-08T15:46:19.551Z,5.40
2023-05-08T15:48:46.874Z,4.25
2023-05-08T15:51:14.178Z,4.75
2023-05-08T15:53:41.133Z,7.88
2023-05-08T15:56:07.884Z,4.20
2023-05-08T15:58:36.702Z,5.03
2023-05-08T16:01:05.240Z,6.65
2023-05-08T16:03:37.875Z,6.00
2023-05-08T16:06:04.826Z,6.25
2023-05-08T16:08:31.596Z,6.38
2023-05-08T16:10:58.473Z,7.05
2023-05-08T16:13:25.372Z,6.22
2023-05-08T16:15:52.326Z,7.78
2023-05-08T16:18:19.088Z,7.13
2023-05-08T16:20:46.872Z,6.35
2023-05-08T16:23:14.970Z,7.60
2023-05-08T16:25:41.638Z,5.70
2023-05-08T16:28:08.399Z,6.00
2023-05-08T16:30:35.204Z,6.47
2023-05-08T16:33:02.290Z,5.63
2023-05-08T16:35:29.685Z,8.48
2023-05-08T16:37:56.386Z,7.85
2023-05-08T16:40:23.060Z,6.30
2023-05-08T16:42:49.726Z,5.57
2023-05-08T16:45:16.459Z,7.20
2023-05-08T16:47:43.298Z,5.55
2023-05-08T16:50:10.826Z,5.43
2023-05-08T16:52:38.469Z,7.63
2023-05-08T16:55:05.666Z,6.28
2023-05-08T16:57:32.418Z,8.43
2023-05-08T16:59:59.157Z,6.18
2023-05-08T17:02:26.096Z,9.35
2023-05-08T17:04:52.880Z,6.95
2023-05-08T17:07:19.692Z,5.85
2023-05-08T17:09:49.240Z,5.75
2023-05-08T17:12:16.002Z,5.72
2023-05-08T17:14:42.846Z,6.65
2023-05-08T17:17:09.579Z,6.10
2023-05-08T17:19:36.255Z,7.50
2023-05-08T17:22:03.492Z,5.50
2023-05-08T17:24:30.863Z,5.45
2023-05-08T17:26:57.993Z,5.10
2023-05-08T17:29:24.953Z,6.85
2023-05-08T17:31:51.885Z,3.92
2023-05-08T17:34:18.653Z,7.43
2023-05-08T17:36:45.427Z,5.03
2023-05-08T17:39:12.574Z,5.35
2023-05-08T17:41:42.612Z,5.75
2023-05-08T17:44:09.355Z,4.68
2023-05-08T17:46:36.249Z,8.10
2023-05-08T17:49:03.213Z,4.57
2023-05-08T17:51:29.890Z,4.57
2023-05-08T17:53:56.710Z,4.47
2023-05-08T17:56:24.103Z,4.55
2023-05-08T17:58:52.560Z,4.82
2023-05-08T18:01:20.321Z,5.00
2023-05-08T18:03:50.830Z,7.25
2023-05-08T18:06:18.324Z,7.43
2023-05-08T18:08:45.997Z,5.55
2023-05-08T18:11:30.579Z,4.85
2023-05-08T18:13:57.282Z,6.68
2023-05-08T18:16:24.226Z,5.20
2023-05-08T18:18:51.961Z,6.47
2023-05-08T18:21:18.852Z,7.72
2023-05-08T18:23:45.643Z,7.88
2023-05-08T18:26:16.385Z,5.85
2023-05-08T18:28:44.218Z,4.63
2023-05-08T18:31:11.884Z,9.32
2023-05-08T18:33:39.205Z,3.90
2023-05-08T18:36:07.418Z,5.72
2023-05-08T18:38:37.414Z,5.28
2023-05-08T18:41:07.380Z,4.78
2023-05-08T18:43:37.685Z,5.38
2023-05-08T18:46:12.698Z,5.95
2023-05-08T18:48:41.158Z,4.97
2023-05-08T18:51:08.043Z,6.72
2023-05-08T18:53:38.291Z,7.05
2023-05-08T18:56:06.126Z,8.82
2023-05-08T18:58:32.951Z,9.20
2023-05-08T19:00:59.818Z,6.55
2023-05-08T19:03:26.640Z,6.53
2023-05-08T19:05:55.164Z,6.75
2023-05-08T19:10:49.145Z,8.23
2023-05-08T19:13:16.112Z,8.30
2023-05-08T19:15:42.913Z,7.57
2023-05-08T19:18:09.740Z,8.88
2023-05-08T19:20:36.518Z,10.65
2023-05-08T19:23:03.251Z,7.60
2023-05-08T19:25:30.378Z,8.88
2023-05-08T19:28:00.549Z,8.18
2023-05-08T19:30:27.540Z,9.75
2023-05-08T19:32:54.732Z,7.20
2023-05-08T19:35:22.204Z,8.07
2023-05-08T19:37:49.323Z,8.68
2023-05-08T19:40:16.526Z,12.00
2023-05-08T19:42:46.386Z,9.95
2023-05-08T19:45:13.464Z,7.32
2023-05-08T19:47:40.215Z,7.10
2023-05-08T19:50:07.459Z,8.07
2023-05-08T19:52:34.652Z,9.40
2023-05-08T19:55:02.006Z,9.57
2023-05-08T19:57:29.022Z,7.93
2023-05-08T19:59:56.282Z,7.85
2023-05-08T20:02:23.328Z,8.75
2023-05-08T20:05:14.220Z,6.28
2023-05-08T20:07:36.702Z,7.28
2023-05-08T20:10:03.648Z,5.25
2023-05-08T20:12:30.802Z,5.63
2023-05-08T20:14:57.573Z,5.75
2023-05-08T20:17:24.324Z,5.05
2023-05-08T20:19:51.084Z,5.63
2023-05-08T20:22:17.804Z,5.43
2023-05-08T20:24:44.488Z,6.28
2023-05-08T20:27:11.113Z,6.10
2023-05-08T20:29:37.832Z,5.95
2023-05-08T20:32:04.510Z,6.72
2023-05-08T20:34:35.044Z,7.07
2023-05-08T20:37:03.818Z,8.23
2023-05-08T20:39:30.638Z,5.90
2023-05-08T20:41:57.367Z,8.70
2023-05-08T20:44:24.208Z,6.47
2023-05-08T20:46:52.098Z,6.53
2023-05-08T20:49:18.914Z,7.93
2023-05-08T20:51:45.835Z,9.18
2023-05-08T20:54:12.603Z,6.88
2023-05-08T20:56:39.319Z,6.40
2023-05-08T20:59:05.988Z,7.55
2023-05-08T21:01:32.838Z,7.82
2023-05-08T21:03:59.655Z,7.88
2023-05-08T21:06:26.432Z,8.00
2023-05-08T21:08:53.297Z,7.63
2023-05-08T21:11:20.054Z,6.22
2023-05-08T21:13:46.976Z,6.18
2023-05-08T21:16:13.786Z,6.72
2023-05-08T21:18:40.581Z,7.32
2023-05-08T21:21:18.141Z,6.45
2023-05-08T21:23:44.907Z,6.97
2023-05-08T21:26:12.008Z,5.68
2023-05-08T21:28:39.445Z,8.13
2023-05-08T21:31:09.064Z,6.13
2023-05-08T21:33:39.131Z,7.45
2023-05-08T21:36:08.750Z,9.52
2023-05-08T21:38:35.670Z,7.05
2023-05-08T21:41:14.049Z,8.52
2023-05-08T21:43:41.718Z,8.85
2023-05-08T21:46:09.471Z,7.97
2023-05-08T21:48:36.977Z,7.30
2023-05-08T21:51:05.869Z,9.13
2023-05-08T21:53:32.831Z,7.53
2023-05-08T21:55:59.872Z,7.47
2023-05-08T21:58:26.529Z,6.63
2023-05-08T22:00:53.215Z,6.43
2023-05-08T22:03:20.017Z,5.60
2023-05-08T22:05:46.893Z,6.32
2023-05-08T22:08:13.699Z,8.45
2023-05-08T22:10:40.600Z,7.07
2023-05-08T22:13:07.596Z,8.77
2023-05-08T22:15:34.610Z,7.43
2023-05-08T22:18:02.896Z,6.95
2023-05-08T22:20:30.549Z,6.78
2023-05-08T22:22:57.323Z,6.88
2023-05-08T22:25:25.863Z,7.15
2023-05-08T22:30:19.430Z,7.93
2023-05-08T22:32:53.694Z,6.05
2023-05-08T22:35:24.884Z,7.32
2023-05-08T22:37:52.678Z,7.55
2023-05-08T22:40:20.127Z,6.43
2023-05-08T22:42:47.523Z,7.25
2023-05-08T22:45:14.909Z,7.93
2023-05-08T22:47:42.261Z,8.85
2023-05-08T22:50:09.458Z,8.00
2023-05-08T22:52:37.024Z,9.52
2023-05-08T22:55:04.053Z,9.05
2023-05-08T22:57:31.058Z,9.63
2023-05-08T22:59:57.731Z,7.65
2023-05-08T23:02:24.453Z,9.73
2023-05-08T23:04:51.130Z,7.43
2023-05-08T23:07:17.963Z,9.43
2023-05-08T23:09:44.686Z,7.43
2023-05-08T23:12:11.377Z,7.75
2023-05-08T23:14:37.999Z,9.45
2023-05-08T23:17:04.862Z,10.63
2023-05-08T23:19:31.585Z,7.20
2023-05-08T23:21:58.390Z,8.38
2023-05-08T23:24:26.039Z,8.00
2023-05-08T23:26:53.229Z,8.02
2023-05-08T23:29:20.398Z,7.50
2023-05-08T23:31:47.212Z,8.88
2023-05-08T23:34:13.985Z,8.48
2023-05-08T23:36:40.689Z,9.70
2023-05-08T23:39:07.451Z,8.85
2023-05-08T23:41:34.188Z,8.32
2023-05-08T23:44:01.221Z,9.40
2023-05-08T23:46:27.992Z,8.80
2023-05-08T23:48:54.695Z,9.35
2023-05-08T23:51:21.683Z,8.38
2023-05-08T23:53:49.079Z,11.40
2023-05-08T23:56:15.984Z,8.93
2023-05-08T23:58:42.717Z,8.95
